Terminal Aerodrome Forecast
Issued by NWS

Home | Current Version | Previous Version | Text Only | Print | Product List | Glossary On
Versions: 1 2 3 4 5 6 7 8 9 10 11 12 13 14 15 16 17 18 19 20 21 22 23 24
000
FTUS46 KLOX 011100 AAA
TAFSBP
TAF AMD
KSBP 011152Z 0112/0212 VRB03KT P6SM OVC005
     FM011600 VRB03KT P6SM BKN006
     FM011700 30005KT P6SM SKC
     FM012000 30011KT P6SM SKC
     FM020300 VRB03KT P6SM SKC
     FM020700 VRB03KT 2SM BR BKN005
     FM021000 VRB03KT 1/2SM FG VV002=

USA.gov is the U.S. government's official web portal to all federal, state and local government web resources and services.